createdAt,value
2022-08-18T00:00:23.307Z,67
2022-08-18T00:05:30.645Z,67
2022-08-18T00:10:18.885Z,67
2022-08-18T00:15:23.958Z,67
2022-08-18T00:20:30.417Z,67
2022-08-18T00:25:19.418Z,68
2022-08-18T00:30:25.493Z,68
2022-08-18T00:35:31.570Z,69
2022-08-18T00:40:20.695Z,69
2022-08-18T00:45:26.793Z,69
2022-08-18T00:50:32.699Z,69
2022-08-18T00:55:21.800Z,68
2022-08-18T01:00:27.941Z,68
2022-08-18T01:05:16.057Z,69
2022-08-18T01:10:22.140Z,69
2022-08-18T01:15:30.175Z,69
2022-08-18T01:20:17.032Z,69
2022-08-18T01:25:23.571Z,69
2022-08-18T01:30:29.169Z,70
2022-08-18T01:35:18.164Z,70
2022-08-18T01:41:11.034Z,64
2022-08-18T01:41:30.957Z,64
2022-08-18T01:45:30.420Z,59
2022-08-18T01:50:19.337Z,58
2022-08-18T01:55:25.434Z,60
2022-08-18T02:00:31.468Z,60
2022-08-18T02:05:19.597Z,63
2022-08-18T02:10:25.643Z,62
2022-08-18T02:15:31.716Z,62
2022-08-18T02:20:21.543Z,63
2022-08-18T02:25:28.598Z,63
2022-08-18T02:30:16.673Z,60
2022-08-18T02:35:22.719Z,57
2022-08-18T02:40:28.798Z,56
2022-08-18T02:45:17.830Z,56
2022-08-18T02:50:23.935Z,57
2022-08-18T02:55:30.045Z,58
2022-08-18T03:00:19.248Z,58
2022-08-18T03:05:24.175Z,58
2022-08-18T03:10:31.662Z,58
2022-08-18T03:15:19.241Z,59
2022-08-18T03:20:29.988Z,59
2022-08-18T03:25:31.397Z,59
2022-08-18T03:30:20.403Z,60
2022-08-18T03:35:26.505Z,60
2022-08-18T03:40:32.570Z,60
2022-08-18T03:45:21.570Z,60
2022-08-18T03:50:27.761Z,60
2022-08-18T03:55:16.680Z,60
2022-08-18T04:00:22.769Z,60
2022-08-18T04:05:27.937Z,61
2022-08-18T04:10:19.472Z,62
2022-08-18T04:15:22.987Z,62
2022-08-18T04:20:28.870Z,63
2022-08-18T04:25:17.891Z,63
2022-08-18T04:30:23.893Z,64
2022-08-18T04:35:30.015Z,65
2022-08-18T04:40:24.346Z,65
2022-08-18T04:45:25.109Z,67
2022-08-18T04:50:31.296Z,68
2022-08-18T04:55:20.234Z,66
2022-08-18T05:00:26.259Z,66
2022-08-18T05:05:32.377Z,66
2022-08-18T05:10:21.467Z,67
2022-08-18T05:15:27.522Z,67
2022-08-18T05:20:16.235Z,67
2022-08-18T05:25:22.330Z,67
2022-08-18T05:30:28.370Z,67
2022-08-18T05:35:17.403Z,67
2022-08-18T05:40:23.579Z,66
2022-08-18T05:45:29.521Z,67
2022-08-18T05:50:18.568Z,66
2022-08-18T05:55:24.793Z,65
2022-08-18T06:00:30.767Z,64
2022-08-18T06:05:18.869Z,65
2022-08-18T06:10:24.872Z,66
2022-08-18T06:15:30.956Z,66
2022-08-18T06:20:20.216Z,67
2022-08-18T06:25:29.592Z,67
2022-08-18T06:30:32.261Z,67
2022-08-18T06:35:21.288Z,67
2022-08-18T06:40:27.392Z,65
2022-08-18T06:45:16.427Z,64
2022-08-18T06:50:22.526Z,64
2022-08-18T06:55:28.690Z,64
2022-08-18T07:00:17.647Z,63
2022-08-18T07:05:22.777Z,63
2022-08-18T07:10:28.802Z,63
2022-08-18T07:15:17.843Z,63
2022-08-18T07:20:24.261Z,61
2022-08-18T07:25:30.391Z,60
2022-08-18T07:30:19.396Z,58
2022-08-18T07:35:25.337Z,56
2022-08-18T07:40:31.413Z,55
2022-08-18T07:45:23.898Z,55
2022-08-18T07:50:55.063Z,55
2022-08-18T07:55:32.705Z,54
2022-08-18T08:00:35.476Z,52
2022-08-18T08:05:26.717Z,52
2022-08-18T08:10:15.780Z,53
2022-08-18T08:15:26.876Z,52
2022-08-18T08:20:32.627Z,51
2022-08-18T08:25:44.542Z,51
2022-08-18T08:30:23.073Z,51
2022-08-18T08:35:48.481Z,50
2022-08-18T08:40:18.143Z,50
2022-08-18T08:45:24.136Z,50
2022-08-18T08:50:30.142Z,50
2022-08-18T08:55:19.172Z,48
2022-08-18T09:00:25.374Z,47
2022-08-18T09:05:31.365Z,47
2022-08-18T09:10:20.433Z,45
2022-08-18T09:15:26.475Z,46
2022-08-18T09:20:32.553Z,47
2022-08-18T09:25:21.563Z,47
2022-08-18T09:30:27.809Z,47
2022-08-18T09:35:16.666Z,47
2022-08-18T09:40:38.621Z,47
2022-08-18T09:45:33.062Z,48
2022-08-18T09:50:27.225Z,47
2022-08-18T09:55:23.958Z,46
2022-08-18T10:00:30.522Z,46
2022-08-18T10:05:18.127Z,46
2022-08-18T10:11:00.806Z,45
2022-08-18T10:15:33.786Z,46
2022-08-18T10:20:26.823Z,46
2022-08-18T10:25:25.372Z,46
2022-08-18T10:30:34.257Z,46
2022-08-18T10:35:23.303Z,46
2022-08-18T10:40:26.713Z,45
2022-08-18T10:45:32.556Z,46
2022-08-18T10:50:21.590Z,44
2022-08-18T10:55:49.149Z,43
2022-08-18T11:00:16.804Z,43
2022-08-18T11:05:21.907Z,43
2022-08-18T11:10:29.838Z,42
2022-08-18T11:15:22.576Z,42
2022-08-18T11:20:23.009Z,42
2022-08-18T11:25:29.133Z,41
2022-08-18T11:30:18.110Z,40
2022-08-18T11:35:24.198Z,40
2022-08-18T11:41:10.443Z,40
2022-08-18T11:45:23.469Z,40
2022-08-18T11:50:25.340Z,40
2022-08-18T11:55:31.423Z,39
2022-08-18T12:00:23.825Z,38
2022-08-18T12:05:25.654Z,38
2022-08-18T12:10:31.678Z,39
2022-08-18T12:16:25.869Z,39
2022-08-18T12:20:26.722Z,38
2022-08-18T12:25:15.796Z,40
2022-08-18T12:30:23.399Z,39
2022-08-18T12:35:30.572Z,38
2022-08-18T12:40:17.045Z,37
2022-08-18T12:45:23.047Z,38
2022-08-18T12:51:34.239Z,38
2022-08-18T12:56:23.309Z,37
2022-08-18T13:00:28.236Z,37
2022-08-18T13:05:30.472Z,38
2022-08-18T13:10:35.438Z,37
2022-08-18T13:15:26.162Z,38
2022-08-18T13:20:31.484Z,38
2022-08-18T13:25:32.761Z,37
2022-08-18T13:30:30.864Z,38
2022-08-18T13:35:38.073Z,37
2022-08-18T13:40:21.834Z,36
2022-08-18T13:45:27.812Z,35
2022-08-18T13:50:16.819Z,35
2022-08-18T13:55:22.910Z,35
2022-08-18T14:00:30.899Z,34
2022-08-18T14:05:17.130Z,34
2022-08-18T14:10:23.169Z,34
2022-08-18T14:15:29.198Z,35
2022-08-18T14:20:21.792Z,35
2022-08-18T14:25:24.523Z,36
2022-08-18T14:30:30.569Z,35
2022-08-18T14:35:33.264Z,35
2022-08-18T14:40:25.759Z,36
2022-08-18T14:45:35.235Z,36
2022-08-18T14:50:20.716Z,37
2022-08-18T14:55:26.836Z,38
2022-08-18T15:00:32.933Z,38
2022-08-18T15:05:24.764Z,39
2022-08-18T15:10:28.095Z,39
2022-08-18T15:15:18.054Z,40
2022-08-18T15:20:23.813Z,40
2022-08-18T15:25:28.281Z,41
2022-08-18T15:30:19.722Z,41
2022-08-18T15:35:23.326Z,41
2022-08-18T15:40:41.204Z,41
2022-08-18T15:45:18.430Z,41
2022-08-18T15:50:25.863Z,41
2022-08-18T15:55:35.806Z,41
2022-08-18T16:00:19.608Z,41
2022-08-18T16:05:24.788Z,41
2022-08-18T16:10:30.826Z,42
2022-08-18T16:15:21.704Z,42
2022-08-18T16:20:26.223Z,42
2022-08-18T16:25:32.304Z,43
2022-08-18T16:30:21.329Z,43
2022-08-18T16:35:27.395Z,43
2022-08-18T16:40:16.447Z,44
2022-08-18T16:45:22.683Z,45
2022-08-18T16:50:28.560Z,45
2022-08-18T16:55:17.626Z,45
2022-08-18T17:00:23.678Z,46
2022-08-18T17:05:28.838Z,46
2022-08-18T17:10:17.801Z,46
2022-08-18T17:15:24.048Z,47
2022-08-18T17:20:29.938Z,48
2022-08-18T17:25:19.009Z,48
2022-08-18T17:30:25.130Z,48
2022-08-18T17:35:31.131Z,48
2022-08-18T17:40:20.201Z,48
2022-08-18T17:45:26.342Z,49
2022-08-18T17:50:32.306Z,50
2022-08-18T17:55:21.366Z,51
2022-08-18T18:00:27.432Z,52
2022-08-18T18:05:15.582Z,53
2022-08-18T18:10:21.599Z,53
2022-08-18T18:15:27.731Z,54
2022-08-18T18:20:16.761Z,54
2022-08-18T18:25:22.790Z,55
2022-08-18T18:30:28.830Z,55
2022-08-18T18:35:17.865Z,55
2022-08-18T18:40:23.950Z,56
2022-08-18T18:45:30.049Z,56
2022-08-18T18:50:19.020Z,57
2022-08-18T18:55:25.126Z,57
2022-08-18T19:00:31.199Z,58
2022-08-18T19:05:20.313Z,58
2022-08-18T19:10:26.448Z,60
2022-08-18T19:15:36.452Z,62
2022-08-18T19:20:21.536Z,66
2022-08-18T19:25:27.628Z,72
2022-08-18T19:30:16.857Z,70
2022-08-18T19:35:23.057Z,72
2022-08-18T19:40:28.810Z,76
2022-08-18T19:45:17.863Z,79
2022-08-18T19:50:24.182Z,80
2022-08-18T19:55:29.976Z,82
2022-08-18T20:00:19.036Z,83
2022-08-18T20:05:24.185Z,84
2022-08-18T20:10:30.280Z,85
2022-08-18T20:15:19.228Z,85
2022-08-18T20:20:25.207Z,86
2022-08-18T20:25:31.120Z,86
2022-08-18T20:30:20.150Z,87
2022-08-18T20:35:26.230Z,87
2022-08-18T20:40:32.342Z,88
2022-08-18T20:45:21.342Z,88
2022-08-18T20:50:27.713Z,88
2022-08-18T20:55:17.047Z,88
2022-08-18T21:00:26.749Z,88
2022-08-18T21:05:28.526Z,89
2022-08-18T21:10:16.684Z,89
2022-08-18T21:15:22.754Z,89
2022-08-18T21:20:29.378Z,89
2022-08-18T21:25:18.210Z,89
2022-08-18T21:30:24.271Z,89
2022-08-18T21:35:30.304Z,89
2022-08-18T21:40:19.402Z,90
2022-08-18T21:45:25.439Z,90
2022-08-18T21:50:31.690Z,90
2022-08-18T21:55:20.556Z,90
2022-08-18T22:00:26.675Z,90
2022-08-18T22:05:59.118Z,90
2022-08-18T22:10:20.797Z,90
2022-08-18T22:15:26.895Z,90
2022-08-18T22:20:16.239Z,90
2022-08-18T22:25:22.288Z,90
2022-08-18T22:30:28.227Z,90
2022-08-18T22:35:18.499Z,90
2022-08-18T22:40:23.588Z,90
2022-08-18T22:45:29.371Z,90
2022-08-18T22:50:18.408Z,90
2022-08-18T22:55:24.679Z,90
2022-08-18T23:00:30.556Z,90
2022-08-18T23:05:18.670Z,90
2022-08-18T23:10:24.791Z,90
2022-08-18T23:15:30.846Z,91
2022-08-18T23:20:20.562Z,91
2022-08-18T23:25:26.765Z,91
2022-08-18T23:30:32.712Z,91
2022-08-18T23:35:21.705Z,91
2022-08-18T23:40:27.802Z,91
2022-08-18T23:45:16.844Z,91
2022-08-18T23:50:22.916Z,91
2022-08-18T23:55:29.003Z,91
